Carlisle, KY (40311)

16:16 EST le 17 janvier 2017 (GMT -0500)
Cynthiana | | Change Station

Alt. 0 ft 38.39 °N, 84.27 °W | Updated 8 minutes ago

Nuageux
Nuageux
62.8 ° F
Paraît 62.8 ° F
N
2.5
Vent Variable Vent de ONO
Gusts 5.6 mph

Aujourd'hui
Haut(e) -- | Bas -- ° F
--% Risque de précip.
Hier
Haut(e) -- | Bas -- ° F
Precip. -- pouce
Pression 29.93 pouce
Visibilité 10.0 Miles terrestres
Nuages Nuageux 2600 ft
Nuageux 3300 ft
Couvert 4200 ft
Point de rosée 57 ° F
Humidité 81%
Précipitations 0.51 pouce
Profondeur de la couche neigeuse Non disponible.
7:50 AM 5:42 PM
Lune gibbeuse décroissante, 69% visible
METAR KIOB 172055Z AUTO 28009KT 10SM BKN026 BKN033 OVC042 17/13 A2993 RMK AO2
Pression 29.93 pouce
Visibilité 10.0 Miles terrestres
Nuages Nuageux 2600 ft
Nuageux 3300 ft
Couvert 4200 ft
Point de rosée 57 ° F
Humidité 81%
Précipitations 0.51 pouce
Profondeur de la couche neigeuse Non disponible.
7:50 AM 5:42 PM
Lune gibbeuse décroissante, 69% visible
METAR KIOB 172055Z AUTO 28009KT 10SM BKN026 BKN033 OVC042 17/13 A2993 RMK AO2

Get Your Daily Forecast Email!

Thanks for signing up!

Be on the lookout for a verification email in your inbox.

You'll start receiving the daily forecast at 8 AM.

×

10-Day Weather Forecast

Almanac

Astronomie

Jan. 17, 2017 Lever Coucher
Temps réel
Crépuscule civil
Crépuscule nautique
Crépuscule astronomique
Lune
Durée de lumière visible
Longueur du jour
Tomorrow will be .
, % of the Moon is Illuminated

Extrêmes aujourd'hui

State Highs State Lows

Community

WunderPhotos

Upload Photos

1,962,540 Photos téléchargées !

WunderBlog® & News

Nearby

Qualité de l'air

  Qualité de l'air Indice de la qualité de l'air Polluant
Not available.

Épaisseur de neige

Station Depth Altitude

Activité sismique

Ville Distance Mag. Time & Date
Minimum magnitude displayed is 2.5.

Températures des eaux côtières

Lieu Température

Stations

Stations météo à proximité

Emplacement de la station Température Refroidissement éolien Point de rosée Humidité Vent Precip. Alt. Mise à jour Type
                   

Watches & Warnings

There are currently no watches in effect.